Página principal
METAR-TAF:

METAR-TAF

Aeroportos :

Genebra, Suíça

Aeroporto Internacional de Genebra

latitude: 46-15N, longitude: 006-08E, altura: 420 m

Observação actual do tempo

O boletim foi feito há 31 minutos, às 23:20 UTC
Vento 2 kt com direcção variável
Temperatura 19°C
Humidade 68%
Pressão 1020 hPa
Visibilidade 10 km ou mais
Nuvens fragmentadasa uma altura de 9500 ft

METAR: LSGG 182320Z AUTO VRB02KT 9999 BKN095 19/13 Q1020 NOSIG

Hora: 01:51 (23:51 UTC)

Previsão

O boletim foi feito há 26 minutos, às 23:25 UTC
Previsão válida de 19 às 00 UTC a 20 às 06 UTC
Vento 5 kt de oes-sudoeste
Visibilidade 10 km ou mais
Poucas nuvensa uma altura de 4000 ft
Nuvens fragmentadasa uma altura de 8000 ft

TAF: LSGG 182325Z 1900/2006 25005KT 9999 FEW040 BKN080 TX23/1915Z TN15/1905Z TN10/2005Z

Observações e previsões do tempo de mais de 4000 aeroportos (mensagens METAR e TAF).

As estações disponíveis são os pontos amarelos e vermelhos sobre o mapa.

Mova o rato sobre o mapa para ver o nome da estação.

Depois clique no ponto para visualizar as observações e previsões meteorológicas.

Para alterar o mapa : clique nos botões verdes com uma cruz preta para aumentar o zoom; no botão verde com uma pitada de zoom; ou nas setas verdes para mapas adjacentes.


METAR-TAF: